Latest Weather Observations for Cape Nelson

IDV60801

Issued at 8:32 am EDT Tuesday 17 January 2017 (issued every 30 minutes, with the page automatically refreshed every 10 minutes)

About weather observations | Map of weather stations | Latest weather observations for VIC | Other Formats
Station Details ID: 090184 Name: CAPE NELSON LIGHTHOUSE Lat: -38.43 Lon: 141.54 Height: 45.4 m
Data from the previous 72 hours. | See also: Recent months at Cape Nelson
Date/Time
EDT
Temp
°C
App
Temp
°C
Dew
Point
°C
Rel
Hum
%
Delta-T
°C
Wind Press
QNH
hPa
Press
MSL
hPa
Rain since
9am
mm
Dir  Spd
km/h
Gust
km/h
Spd
kts
Gust
kts
17/08:00am 20.4 17.0 9.3 49 5.9 NNW 17 24 9 13 1007.3 1007.2 0.0
17/07:30am 19.4 18.3 11.9 62 4.2 WNW 9 15 5 8 1007.3 1007.2 0.0
17/07:00am 19.0 16.4 9.5 54 5.0 NNW 13 17 7 9 1007.2 1007.1 0.0
17/06:30am 18.1 15.7 10.2 60 4.2 N 13 17 7 9 1007.3 1007.2 0.0
17/06:00am 17.6 16.2 10.9 65 3.6 NNW 9 13 5 7 1007.3 1007.2 0.0
17/05:30am 17.2 15.1 11.0 67 3.3 NNW 13 13 7 7 1007.1 1007.0 0.0
17/05:00am 16.9 15.2 11.2 69 3.1 NNW 11 13 6 7 1007.3 1007.2 0.0
17/04:30am 16.5 14.4 11.2 71 2.9 NNW 13 17 7 9 1007.6 1007.5 0.0
17/04:00am 16.5 15.2 11.2 71 2.9 NNW 9 13 5 7 1007.7 1007.6 0.0
17/03:30am 16.4 14.7 11.1 71 2.8 NNW 11 13 6 7 1007.7 1007.6 0.0
17/03:00am 16.7 15.4 11.4 71 2.9 NNW 9 11 5 6 1008.1 1008.0 0.0
17/02:30am 16.8 15.6 11.7 72 2.8 NNW 9 9 5 5 1008.4 1008.3 0.0
17/02:00am 17.0 15.8 11.7 71 2.9 N 9 9 5 5 1008.5 1008.4 0.0
17/01:30am 17.3 16.2 11.8 70 3.0 NW 9 9 5 5 1008.7 1008.6 0.0
17/01:00am 17.9 17.2 11.9 68 3.3 NW 7 9 4 5 1008.8 1008.7 0.0
17/12:30am 18.6 17.5 12.1 66 3.6 NW 9 11 5 6 1009.1 1009.0 0.0
17/12:00am 19.9 18.3 12.9 64 4.0 WNW 13 17 7 9 1009.4 1009.3 0.0
 
Date/Time
EDT
Temp
°C
App
Temp
°C
Dew
Point
°C
Rel
Hum
%
Delta-T
°C
Wind Press
QNH
hPa
Press
MSL
hPa
Rain since
9am
mm
Dir  Spd
km/h
Gust
km/h
Spd
kts
Gust
kts
16/11:30pm 20.0 18.1 13.0 64 4.0 WNW 15 20 8 11 1009.6 1009.5 0.0
16/11:00pm 20.2 18.6 12.7 62 4.2 WNW 13 19 7 10 1009.8 1009.7 0.0
16/10:30pm 20.1 17.5 12.1 60 4.5 NW 17 19 9 10 1009.6 1009.5 0.0
16/10:00pm 20.7 17.6 12.1 58 4.8 WNW 20 24 11 13 1009.8 1009.7 0.0
16/09:30pm 20.9 18.1 12.6 59 4.7 WNW 19 22 10 12 1010.2 1010.1 0.0
16/09:00pm 21.3 18.4 12.2 56 5.1 WNW 19 24 10 13 1009.7 1009.6 0.0
16/08:30pm 22.2 19.0 11.3 50 6.1 WNW 19 24 10 13 1009.7 1009.6 0.0
16/08:00pm 23.3 20.9 11.4 47 6.7 WNW 15 24 8 13 1009.8 1009.7 0.0
16/07:30pm 23.9 23.6 13.2 51 6.2 WSW 7 13 4 7 1009.6 1009.5 0.0
16/07:00pm 25.9 25.3 13.4 46 7.4 WNW 9 15 5 8 1009.2 1009.1 0.0
16/06:30pm 24.9 23.6 12.5 46 7.1 WNW 11 17 6 9 1009.4 1009.3 0.0
16/06:00pm 23.8 23.7 13.4 52 6.1 SW 6 11 3 6 1009.9 1009.8 0.0
16/05:30pm 24.1 24.1 13.6 52 6.1 SSW 6 9 3 5 1010.2 1010.1 0.0
16/05:00pm 24.2 24.5 14.6 55 5.7 SSW 6 9 3 5 1010.5 1010.4 0.0
16/04:30pm 22.1 21.9 13.7 59 4.9 SE 7 9 4 5 1011.0 1010.9 0.0
16/04:00pm 21.0 20.8 14.6 67 3.8 SE 9 13 5 7 1011.4 1011.3 0.0
16/03:30pm 21.5 21.1 15.1 67 3.8 SE 11 13 6 7 1011.6 1011.5 0.0
16/03:00pm 21.6 21.2 15.2 67 3.8 SE 11 13 6 7 1011.9 1011.8 0.0
16/02:30pm 21.0 20.7 14.4 66 3.9 SSE 9 11 5 6 1012.5 1012.4 0.0
16/02:00pm 21.0 20.3 14.2 65 4.0 SSE 11 15 6 8 1013.0 1012.9 0.0
16/01:30pm 21.5 20.8 14.2 63 4.3 ESE 11 15 6 8 1013.2 1013.1 0.0
16/01:00pm 20.9 19.9 13.4 62 4.3 ESE 11 15 6 8 1013.4 1013.3 0.0
16/12:30pm 20.7 18.9 13.4 63 4.2 E 15 17 8 9 1013.6 1013.5 0.0
16/12:00pm 20.0 18.3 13.7 67 3.6 E 15 19 8 10 1013.7 1013.6 0.0
16/11:30am 19.5 18.0 13.0 66 3.7 E 13 19 7 10 1014.1 1014.0 0.0
16/11:00am 19.2 17.2 12.7 66 3.7 E 15 19 8 10 1014.5 1014.4 0.0
16/10:30am 18.9 17.1 12.2 65 3.7 ENE 13 19 7 10 1014.8 1014.7 0.0
16/10:00am 19.4 16.6 12.7 65 3.8 NNE 19 24 10 13 1015.1 1015.0 0.0
16/09:30am 18.0 14.8 11.8 67 3.4 NNE 20 28 11 15 1015.2 1015.1 0.0
16/09:00am 17.3 14.4 12.4 73 2.7 NNE 19 24 10 13 1015.2 1015.1 0.0
16/08:30am 15.6 13.0 12.0 79 2.0 NNE 17 24 9 13 1015.3 1015.2 0.0
16/08:00am 14.3 11.6 11.8 85 1.3 NNE 17 22 9 12 1015.2 1015.1 0.0
16/07:30am 13.1 10.7 11.3 89 1.0 NNE 15 19 8 10 1015.1 1015.0 0.0
16/07:00am 11.4 9.3 9.8 90 0.8 NNE 11 15 6 8 1015.1 1015.0 0.0
16/06:30am 10.1 7.3 8.4 89 0.8 NNE 13 15 7 8 1014.9 1014.8 0.0
16/06:00am 9.6 7.0 7.9 89 0.8 N 11 13 6 7 1015.1 1015.0 0.0
16/05:30am 9.7 6.7 7.8 88 0.9 N 13 15 7 8 1015.2 1015.1 0.0
16/05:00am 9.7 6.7 7.8 88 0.9 N 13 15 7 8 1015.0 1014.9 0.0
16/04:30am 9.8 7.6 7.9 88 0.9 NNE 9 11 5 6 1014.9 1014.8 0.0
16/04:00am 9.5 7.5 7.3 86 1.0 NE 7 9 4 5 1014.7 1014.6 0.0
16/03:30am 9.7 8.0 7.5 86 1.0 NE 6 9 3 5 1014.9 1014.8 0.0
16/03:00am 9.7 9.1 7.3 85 1.1 CALM 0 0 0 0 1015.2 1015.1 0.0
16/02:30am 10.4 9.8 7.6 83 1.3 CALM 0 0 0 0 1015.6 1015.5 0.0
16/02:00am 10.3 9.2 7.0 80 1.6 SW 2 7 1 4 1016.0 1015.9 0.0
16/01:30am 11.4 10.0 7.3 76 2.0 SSE 4 9 2 5 1016.3 1016.2 0.0
16/01:00am 14.4 13.1 10.0 75 2.3 S 7 11 4 6 1016.5 1016.4 0.0
16/12:30am 14.3 12.6 9.7 74 2.4 S 9 13 5 7 1016.7 1016.6 0.0
16/12:00am 14.6 12.9 9.8 73 2.5 S 9 11 5 6 1017.0 1016.9 0.0
 
Date/Time
EDT
Temp
°C
App
Temp
°C
Dew
Point
°C
Rel
Hum
%
Delta-T
°C
Wind Press
QNH
hPa
Press
MSL
hPa
Rain since
9am
mm
Dir  Spd
km/h
Gust
km/h
Spd
kts
Gust
kts
15/11:30pm 14.7 13.3 9.7 72 2.6 S 7 13 4 7 1017.3 1017.2 0.0
15/11:00pm 15.0 12.5 9.8 71 2.7 S 13 20 7 11 1017.5 1017.4 0.0
15/10:30pm 14.8 13.4 9.6 71 2.7 ESE 7 15 4 8 1017.8 1017.7 0.0
15/10:00pm 15.0 13.3 9.8 71 2.7 SE 9 15 5 8 1017.8 1017.7 0.0
15/09:30pm 15.2 13.5 10.0 71 2.7 ENE 9 19 5 10 1017.8 1017.7 0.0
15/09:00pm 15.2 13.5 9.8 70 2.8 NNE 9 13 5 7 1017.9 1017.8 0.0
15/08:30pm 15.6 13.8 9.3 66 3.3 WNW 9 13 5 7 1017.7 1017.6 0.0
15/08:00pm 16.7 14.6 9.6 63 3.7 NW 11 20 6 11 1017.6 1017.5 0.0
15/07:30pm 17.1 15.0 9.8 62 3.8 WNW 11 19 6 10 1017.7 1017.6 0.0
15/07:00pm 17.7 16.2 10.6 63 3.8 WSW 9 15 5 8 1017.8 1017.7 0.0
15/06:30pm 16.9 15.3 10.3 65 3.5 WNW 9 17 5 9 1018.0 1017.9 0.0
15/06:00pm 17.8 16.3 10.4 62 3.9 WSW 9 13 5 7 1018.2 1018.1 0.0
15/05:30pm 18.5 17.7 11.6 64 3.8 NW 7 11 4 6 1018.4 1018.3 0.0
15/05:00pm 18.1 16.8 11.2 64 3.7 NE 9 13 5 7 1018.7 1018.6 0.0
15/04:30pm 18.0 16.5 10.4 61 4.1 ENE 9 17 5 9 1019.0 1018.9 0.0
15/04:00pm 18.6 16.8 10.9 61 4.2 N 11 17 6 9 1019.1 1019.0 0.0
15/03:30pm 17.4 14.3 10.3 63 3.8 WNW 17 26 9 14 1019.5 1019.4 0.0
15/03:00pm 16.6 12.3 9.5 63 3.7 W 22 28 12 15 1019.6 1019.5 0.0
15/02:30pm 16.5 12.6 9.4 63 3.7 W 20 28 11 15 1019.5 1019.4 0.0
15/02:00pm 16.4 13.0 9.3 63 3.7 W 17 24 9 13 1019.8 1019.7 0.0
15/01:30pm 16.2 12.3 9.4 64 3.5 WNW 20 30 11 16 1019.9 1019.8 0.0
15/01:00pm 17.1 14.0 10.2 64 3.7 W 17 24 9 13 1019.9 1019.8 0.0
15/12:30pm 16.1 13.5 9.3 64 3.5 W 13 20 7 11 1019.9 1019.8 0.0
15/12:00pm 16.0 13.4 9.2 64 3.5 W 13 20 7 11 1020.0 1019.9 0.0
15/11:30am 16.4 14.3 9.6 64 3.6 W 11 17 6 9 1019.9 1019.8 0.0
15/11:00am 16.1 13.4 9.1 63 3.6 W 13 19 7 10 1019.8 1019.7 0.0
15/10:30am 15.6 12.4 8.6 63 3.6 W 15 24 8 13 1019.9 1019.8 0.0
15/10:00am 15.6 12.6 9.1 65 3.3 W 15 22 8 12 1019.9 1019.8 0.0
15/09:30am 15.6 13.2 8.8 64 3.5 W 11 17 6 9 1019.7 1019.6 0.0
15/09:00am 15.7 13.5 9.4 66 3.3 W 11 15 6 8 1019.5 1019.4 0.0
15/08:30am 15.3 13.5 9.4 68 3.0 W 9 15 5 8 1019.1 1019.0 0.0
15/08:00am 15.0 13.8 10.2 73 2.5 SSE 7 13 4 7 1019.0 1018.9 0.0
15/07:30am 14.8 13.1 9.8 72 2.6 NE 9 15 5 8 1018.6 1018.5 0.0
15/07:00am 14.8 13.1 9.8 72 2.6 NE 9 13 5 7 1018.2 1018.1 0.0
15/06:30am 15.0 13.3 9.8 71 2.7 N 9 13 5 7 1017.8 1017.7 0.0
15/06:00am 14.9 12.8 9.7 71 2.7 N 11 17 6 9 1017.8 1017.7 0.0
15/05:30am 14.9 13.1 9.3 69 2.9 S 9 19 5 10 1017.6 1017.5 0.0
15/05:00am 14.6 13.1 9.0 69 2.9 NE 7 15 4 8 1017.3 1017.2 0.0
15/04:30am 14.6 11.8 8.5 67 3.1 NNE 13 20 7 11 1017.3 1017.2 0.0
15/04:00am 14.7 11.9 8.6 67 3.1 ESE 13 20 7 11 1017.1 1017.0 0.0
15/03:30am 14.9 12.2 9.1 68 3.0 SE 13 33 7 18 1017.0 1016.9 0.0
15/03:00am 15.0 12.5 9.6 70 2.8 ENE 13 22 7 12 1017.1 1017.0 0.0
15/02:30am 15.1 11.8 9.5 69 2.9 SE 17 26 9 14 1017.1 1017.0 0.0
15/02:00am 14.9 12.1 8.6 66 3.2 NE 13 22 7 12 1017.3 1017.2 0.0
15/01:30am 14.9 11.8 8.8 67 3.1 NE 15 26 8 14 1017.5 1017.4 0.0
15/01:00am 14.9 11.7 8.6 66 3.2 E 15 30 8 16 1017.7 1017.6 0.0
15/12:30am 15.0 11.1 8.7 66 3.2 NW 19 30 10 16 1017.7 1017.6 0.0
15/12:00am 15.0 11.4 8.5 65 3.3 NW 17 26 9 14 1017.8 1017.7 0.0
 
Date/Time
EDT
Temp
°C
App
Temp
°C
Dew
Point
°C
Rel
Hum
%
Delta-T
°C
Wind Press
QNH
hPa
Press
MSL
hPa
Rain since
9am
mm
Dir  Spd
km/h
Gust
km/h
Spd
kts
Gust
kts
14/11:30pm 15.0 11.3 8.0 63 3.5 N 17 26 9 14 1017.6 1017.5 0.0
14/11:00pm 15.1 11.7 9.0 67 3.1 NE 17 26 9 14 1017.4 1017.3 0.0
14/10:30pm 15.1 11.7 9.2 68 3.0 N 17 28 9 15 1017.4 1017.3 0.0
14/10:00pm 15.1 11.6 8.8 66 3.2 NE 17 26 9 14 1017.2 1017.1 0.0
14/09:30pm 15.3 11.9 9.2 67 3.1 ENE 17 26 9 14 1016.9 1016.8 0.0
14/09:00pm 15.4 12.1 9.5 68 3.1 NE 17 24 9 13 1016.6 1016.5 0.0
14/08:30pm 15.5 12.6 9.6 68 3.1 NE 15 24 8 13 1016.3 1016.2 0.0
14/08:00pm 15.7 12.3 9.1 65 3.4 NW 17 32 9 17 1016.1 1016.0 0.0
14/07:30pm 16.5 13.2 9.7 64 3.6 NNW 17 30 9 16 1015.7 1015.6 0.0
14/07:00pm 16.6 13.1 10.2 66 3.4 NW 19 33 10 18 1015.4 1015.3 0.0
14/06:30pm 16.4 11.3 10.5 68 3.1 WNW 28 44 15 24 1015.3 1015.2 0.0
14/06:00pm 17.2 12.4 10.3 64 3.7 W 26 39 14 21 1015.1 1015.0 0.0
14/05:30pm 17.4 13.9 11.0 66 3.5 NNW 20 33 11 18 1014.8 1014.7 0.0
14/05:00pm 17.2 12.3 10.1 63 3.8 WNW 26 41 14 22 1014.9 1014.8 0.0
14/04:30pm 17.4 13.3 10.1 62 3.9 NW 22 37 12 20 1014.4 1014.3 0.0
14/04:00pm 17.4 12.7 10.8 65 3.5 NW 26 48 14 26 1014.0 1013.9 0.0
14/03:30pm 17.4 13.0 11.7 69 3.1 WNW 26 39 14 21 1013.6 1013.5 0.0
14/03:00pm 17.1 13.5 11.8 71 2.9 NNW 22 37 12 20 1013.0 1012.9 0.0
14/02:30pm 17.4 12.7 12.1 71 2.9 WNW 28 44 15 24 1012.7 1012.6 0.0
14/02:00pm 15.5 8.1 11.1 75 2.4 W 41 59 22 32 1012.7 1012.6 0.0
14/01:30pm 16.6 10.4 11.3 71 2.9 W 35 54 19 29 1012.4 1012.3 0.0
14/01:14pm 16.7 10.9 11.6 72 2.8 W 33 52 18 28 1012.2 1012.1 0.0
14/01:00pm 16.1 9.4 11.1 72 2.7 W 37 54 20 29 1012.1 1012.0 0.0
14/12:40pm 16.5 10.4 11.6 73 2.7 W 35 57 19 31 1011.6 1011.5 0.0
14/12:30pm 17.1 12.8 12.2 73 2.7 NNW 26 50 14 27 1011.4 1011.3 0.0
14/12:21pm 17.0 9.9 12.1 73 2.7 W 41 63 22 34 1011.0 1010.9 0.0
14/12:05pm 16.8 9.0 11.1 69 3.1 W 43 61 23 33 1011.0 1010.9 0.0
14/12:00pm 16.4 8.0 10.9 70 2.9 W 46 61 25 33 1010.9 1010.8 0.0
14/11:47am 16.7 8.8 10.8 68 3.2 W 43 61 23 33 1010.7 1010.6 0.0
14/11:30am 16.4 8.0 11.1 71 2.8 W 46 61 25 33 1010.4 1010.3 0.0
14/11:00am 16.0 7.8 11.8 76 2.3 W 46 61 25 33 1009.9 1009.8 0.0
14/10:39am 16.0 9.5 11.8 76 2.3 W 37 63 20 34 1009.6 1009.5 0.0
14/10:38am 16.0 9.9 11.8 76 2.3 WNW 35 54 19 29 1009.5 1009.4 0.0
14/10:31am 15.8 10.7 11.8 77 2.2 NW 30 48 16 26 1009.2 1009.1 0.0
14/10:30am 15.9 10.4 11.9 77 2.2 NW 32 54 17 29 1009.2 1009.1 0.0
14/10:28am 15.7 9.1 11.5 76 2.3 WNW 37 63 20 34 1009.3 1009.2 0.0
14/10:25am 15.8 8.1 11.4 75 2.4 W 43 65 23 35 1009.1 1009.0 0.0
14/10:00am 16.1 8.4 11.5 74 2.5 W 43 61 23 33 1009.4 1009.3 0.0
14/09:30am 15.5 8.5 11.1 75 2.4 WNW 39 67 21 36 1009.0 1008.9 0.0
14/09:23am 15.4 8.0 11.2 76 2.2 W 41 70 22 38 1008.6 1008.5 0.0
14/09:21am 15.6 7.9 11.4 76 2.3 W 43 70 23 38 1008.4 1008.3 0.0
14/09:00am 16.4 7.4 11.6 73 2.6 W 50 70 27 38 1008.6 1008.5 10.4

Other Formats:

Comma delimited format used in spreadsheet applications
http://www.bom.gov.au/fwo/IDV60801/IDV60801.94826.axf

JavaScript Object Notation format (JSON) in row-major order
http://www.bom.gov.au/fwo/IDV60801/IDV60801.94826.json